Time;durP1;ratioP1;P1;durP2;ratioP2;P2;SDS_P1;SDS_P2;PMS_P1;PMS_P2;Temp;Humidity;BMP_temperature;BMP_pressure;BME280_temperature;BME280_humidity;BME280_pressure;Samples;Min_cycle;Max_cycle;Signal;HPM_P1;HPM_P2
2021/05/17 00:01:47;;;;;;;2.20;0.50;;;;;;;11.79;88.25;97517.22;4862758;28;102664;-78
2021/05/17 00:04:15;;;;;;;0.87;0.60;;;;;;;11.67;87.69;97517.56;4866176;28;103208;-78
2021/05/17 00:06:44;;;;;;;1.77;0.60;;;;;;;11.68;88.42;97514.75;4863880;28;106418;-78
2021/05/17 00:09:12;;;;;;;2.63;0.60;;;;;;;11.52;88.23;97519.84;4858651;28;102694;-78
2021/05/17 00:11:40;;;;;;;1.90;0.80;;;;;;;11.54;87.96;97520.50;4885493;28;102437;-78
2021/05/17 00:14:08;;;;;;;2.60;0.80;;;;;;;11.58;87.25;97524.56;4885638;28;103692;-78
2021/05/17 00:16:37;;;;;;;2.97;0.83;;;;;;;11.64;86.99;97522.16;4858004;28;102530;-78
2021/05/17 00:19:05;;;;;;;1.67;0.70;;;;;;;11.63;86.59;97519.66;4887081;28;103195;-78
2021/05/17 00:21:33;;;;;;;0.70;0.60;;;;;;;11.62;86.22;97526.75;4889109;28;102370;-78
2021/05/17 00:24:01;;;;;;;2.93;0.70;;;;;;;11.60;86.88;97527.88;4888162;28;104150;-78
2021/05/17 00:26:29;;;;;;;1.77;0.90;;;;;;;11.50;86.79;97527.09;4869636;28;104729;-78
2021/05/17 00:28:57;;;;;;;0.80;0.70;;;;;;;11.62;87.06;97537.31;4869459;28;102496;-78
2021/05/17 00:31:25;;;;;;;3.73;0.80;;;;;;;11.64;86.70;97537.19;4888678;28;102280;-78
2021/05/17 00:33:55;;;;;;;1.63;0.80;;;;;;;11.58;86.48;97535.13;4869760;28;104017;-78
2021/05/17 00:36:23;;;;;;;1.63;0.60;;;;;;;11.56;87.05;97534.44;4871634;28;104317;-78
2021/05/17 00:38:52;;;;;;;1.10;0.60;;;;;;;11.68;86.46;97535.91;4888740;28;103065;-78
2021/05/17 00:41:20;;;;;;;2.97;0.90;;;;;;;11.55;86.84;97533.63;4870604;28;102595;-78
2021/05/17 00:43:48;;;;;;;0.73;0.60;;;;;;;11.60;86.65;97538.47;4887124;28;103004;-77
2021/05/17 00:46:16;;;;;;;2.50;0.67;;;;;;;11.39;87.06;97540.50;4871265;28;103574;-78
2021/05/17 00:48:44;;;;;;;1.90;0.67;;;;;;;11.27;86.80;97528.41;4857776;28;102995;-78
2021/05/17 00:51:13;;;;;;;0.90;0.50;;;;;;;11.40;87.32;97531.56;4886508;28;102938;-77
2021/05/17 00:53:41;;;;;;;0.93;0.80;;;;;;;11.34;86.98;97532.16;4869323;28;102571;-77
2021/05/17 00:56:10;;;;;;;0.80;0.60;;;;;;;11.47;86.36;97524.72;4886805;28;102632;-78
2021/05/17 00:58:42;;;;;;;1.13;0.57;;;;;;;11.34;86.52;97532.16;4892657;28;102476;-78
2021/05/17 01:01:10;;;;;;;2.03;0.90;;;;;;;11.25;87.10;97536.50;4877426;28;102468;-78
2021/05/17 01:03:38;;;;;;;1.60;0.63;;;;;;;11.22;86.86;97543.88;4865569;28;105264;-78
2021/05/17 01:06:19;;;;;;;1.80;0.70;;;;;;;11.29;86.62;97531.72;4856871;28;102488;-78
2021/05/17 01:08:57;;;;;;;1.53;0.63;;;;;;;11.29;86.53;97529.09;4887109;28;102516;-78
2021/05/17 01:11:27;;;;;;;0.90;0.50;;;;;;;11.24;86.62;97531.34;4888760;28;102420;-78
2021/05/17 01:13:57;;;;;;;3.53;0.80;;;;;;;11.21;87.22;97531.63;4848221;29;103127;-78
2021/05/17 01:16:26;;;;;;;1.00;0.50;;;;;;;11.23;87.23;97530.50;4832807;29;105584;-78
2021/05/17 01:18:55;;;;;;;1.40;0.50;;;;;;;11.00;87.49;97532.63;4831560;29;103076;-78
2021/05/17 01:21:28;;;;;;;2.90;0.70;;;;;;;11.16;87.31;97528.56;4836436;28;102787;-78
2021/05/17 01:23:58;;;;;;;1.17;0.70;;;;;;;11.07;87.72;97528.44;4848652;29;104700;-79
2021/05/17 01:26:28;;;;;;;2.43;0.60;;;;;;;11.09;87.34;97524.84;4843556;29;103026;-78
2021/05/17 01:29:01;;;;;;;1.67;0.60;;;;;;;10.96;87.80;97525.97;4814226;29;102590;-79
2021/05/17 01:31:29;;;;;;;2.57;0.80;;;;;;;11.00;87.45;97523.88;4829747;29;102576;-78
2021/05/17 01:33:58;;;;;;;1.23;0.50;;;;;;;11.05;87.36;97527.78;4814291;29;103196;-76
2021/05/17 01:36:27;;;;;;;1.77;0.60;;;;;;;11.03;87.46;97529.69;4821951;29;103251;-77
2021/05/17 01:38:56;;;;;;;2.30;0.70;;;;;;;11.04;87.55;97523.44;4837590;29;103012;-78
2021/05/17 01:41:27;;;;;;;1.17;0.50;;;;;;;10.99;86.72;97528.34;4849054;29;102765;-77
2021/05/17 01:43:58;;;;;;;0.83;0.47;;;;;;;10.93;87.00;97528.06;4833084;28;104043;-77
2021/05/17 01:46:30;;;;;;;0.63;0.50;;;;;;;10.94;87.13;97522.63;4847170;28;105149;-77
2021/05/17 01:49:13;;;;;;;1.80;0.53;;;;;;;11.05;85.95;97532.22;4869675;28;102563;-77
2021/05/17 01:51:44;;;;;;;0.60;0.60;;;;;;;11.02;86.03;97535.97;4883400;28;102606;-77
2021/05/17 01:54:12;;;;;;;1.13;0.50;;;;;;;10.83;86.87;97536.00;4870814;28;102538;-77
2021/05/17 01:56:44;;;;;;;1.90;0.57;;;;;;;10.91;86.13;97546.69;4845934;28;103834;-78
2021/05/17 01:59:27;;;;;;;1.43;0.70;;;;;;;10.86;86.48;97548.09;4867110;28;103091;-75
2021/05/17 02:01:56;;;;;;;1.03;0.60;;;;;;;10.86;86.34;97554.19;4882131;28;103103;-75
2021/05/17 02:04:25;;;;;;;1.40;0.50;;;;;;;10.90;86.58;97550.31;4907388;28;103553;-76
2021/05/17 02:06:55;;;;;;;1.20;0.50;;;;;;;10.83;86.35;97543.94;4907220;28;102474;-76
2021/05/17 02:09:26;;;;;;;0.60;0.50;;;;;;;10.97;86.36;97540.84;4903798;28;103865;-75
2021/05/17 02:11:54;;;;;;;1.00;0.40;;;;;;;10.83;86.70;97543.09;4908146;28;102307;-76
2021/05/17 02:14:38;;;;;;;1.00;0.70;;;;;;;10.95;86.68;97545.44;4908259;28;102137;-75
2021/05/17 02:17:07;;;;;;;1.43;0.47;;;;;;;11.03;86.18;97550.03;4903224;28;102494;-76
2021/05/17 02:19:35;;;;;;;1.37;0.60;;;;;;;10.95;86.77;97548.06;4890002;28;102547;-76
2021/05/17 02:22:03;;;;;;;1.40;0.50;;;;;;;11.01;86.69;97546.69;4874973;28;102430;-75
2021/05/17 02:24:36;;;;;;;3.03;0.57;;;;;;;10.99;86.83;97546.81;4906662;28;102487;-76
2021/05/17 02:27:07;;;;;;;1.97;0.80;;;;;;;10.92;87.08;97540.41;4898266;28;103272;-76
2021/05/17 02:29:39;;;;;;;1.67;0.60;;;;;;;11.01;87.59;97542.22;4876278;28;103099;-76
2021/05/17 02:32:08;;;;;;;1.20;0.50;;;;;;;11.00;87.22;97529.16;4890302;28;102422;-76
2021/05/17 02:34:36;;;;;;;1.77;0.50;;;;;;;10.99;87.40;97538.91;4872531;28;104813;-77
2021/05/17 02:37:09;;;;;;;1.10;0.50;;;;;;;10.94;87.47;97535.84;4874732;28;103893;-75
2021/05/17 02:39:37;;;;;;;2.97;0.60;;;;;;;10.94;87.44;97541.13;4893328;28;102605;-76
2021/05/17 02:42:10;;;;;;;0.50;0.50;;;;;;;10.98;87.25;97542.50;4892918;28;103225;-76
2021/05/17 02:44:39;;;;;;;1.53;0.77;;;;;;;11.06;86.67;97550.56;4873944;28;102197;-76
2021/05/17 02:47:08;;;;;;;0.97;0.60;;;;;;;10.87;87.05;97544.47;4857157;28;103276;-76
2021/05/17 02:49:36;;;;;;;3.07;0.97;;;;;;;10.83;86.57;97546.56;4891827;28;102433;-76
2021/05/17 02:52:04;;;;;;;1.30;0.50;;;;;;;10.77;87.57;97548.94;4892996;28;102651;-76
2021/05/17 02:54:37;;;;;;;1.43;0.70;;;;;;;10.94;86.82;97557.00;4875407;28;102758;-75
2021/05/17 02:57:09;;;;;;;1.50;0.57;;;;;;;10.81;87.08;97563.50;4873682;28;103231;-76
2021/05/17 03:00:15;;;;;;;0.73;0.63;;;;;;;10.86;86.95;97574.53;4887073;28;103199;-76
2021/05/17 03:03:03;;;;;;;0.73;0.50;;;;;;;10.88;86.83;97578.69;4888826;28;103143;-75
2021/05/17 03:05:40;;;;;;;0.80;0.40;;;;;;;10.96;86.61;97570.06;4880585;28;103122;-78
2021/05/17 03:08:12;;;;;;;0.53;0.53;;;;;;;10.77;86.98;97576.19;4882888;28;103235;-79
2021/05/17 03:10:42;;;;;;;1.50;0.50;;;;;;;10.81;86.43;97577.56;4868204;28;102701;-75
2021/05/17 03:13:13;;;;;;;0.70;0.47;;;;;;;10.91;86.29;97578.41;4860536;28;103078;-77
2021/05/17 03:15:42;;;;;;;1.33;0.50;;;;;;;10.99;85.91;97575.91;4887577;28;103379;-76
2021/05/17 03:18:10;;;;;;;1.13;0.70;;;;;;;10.97;85.86;97575.22;4871537;28;102962;-76
2021/05/17 03:20:39;;;;;;;0.97;0.60;;;;;;;10.90;86.25;97575.88;4888142;28;102380;-76
2021/05/17 03:23:08;;;;;;;0.63;0.60;;;;;;;10.88;86.38;97578.69;4888188;28;102560;-74
2021/05/17 03:25:38;;;;;;;0.40;0.40;;;;;;;10.81;86.47;97582.84;4868826;28;103248;-77
2021/05/17 03:28:06;;;;;;;0.70;0.53;;;;;;;10.76;86.29;97582.44;4871932;28;104229;-76
2021/05/17 03:30:35;;;;;;;0.40;0.30;;;;;;;10.82;86.17;97583.69;4850249;28;103043;-77
2021/05/17 03:33:03;;;;;;;2.87;0.50;;;;;;;10.69;86.35;97578.69;4868499;28;103671;-77
2021/05/17 03:35:31;;;;;;;0.80;0.40;;;;;;;10.72;86.11;97581.03;4871461;28;102539;-77
2021/05/17 03:38:03;;;;;;;1.90;0.50;;;;;;;10.74;85.58;97581.75;4886513;28;102778;-77
2021/05/17 03:40:31;;;;;;;2.20;0.60;;;;;;;10.77;85.73;97584.09;4872151;28;103235;-77
2021/05/17 03:42:58;;;;;;;1.00;0.53;;;;;;;10.74;86.14;97589.66;4877286;28;103050;-76
2021/05/17 03:45:26;;;;;;;0.70;0.40;;;;;;;10.64;86.18;97586.16;4887353;28;105080;-77
2021/05/17 03:47:54;;;;;;;0.90;0.50;;;;;;;10.84;85.43;97585.22;4887081;28;103132;-77
2021/05/17 03:50:22;;;;;;;2.10;0.70;;;;;;;10.80;85.53;97589.13;4885580;28;103045;-77
2021/05/17 03:52:49;;;;;;;1.13;0.50;;;;;;;10.85;85.81;97594.81;4887948;28;102518;-77
2021/05/17 03:55:17;;;;;;;1.70;0.53;;;;;;;10.85;85.42;97600.09;4889666;28;103479;-77
2021/05/17 03:57:45;;;;;;;0.93;0.70;;;;;;;10.71;86.22;97595.22;4870403;28;104521;-77
2021/05/17 04:00:14;;;;;;;1.67;0.50;;;;;;;10.87;85.82;97603.44;4882825;28;102631;-77
2021/05/17 04:02:44;;;;;;;2.10;0.60;;;;;;;10.82;86.10;97607.47;4888818;28;102992;-77
2021/05/17 04:13:36;;;;;;;1.43;0.60;;;;;;;10.89;86.02;97619.97;4868984;28;102818;-77
2021/05/17 04:16:04;;;;;;;2.23;0.70;;;;;;;10.97;85.90;97620.13;4887312;28;103120;-77
2021/05/17 04:18:31;;;;;;;1.00;0.67;;;;;;;11.05;85.14;97622.06;4875785;28;102981;-77
2021/05/17 04:21:00;;;;;;;0.60;0.50;;;;;;;11.11;85.31;97626.81;4888083;28;102919;-76
2021/05/17 04:23:28;;;;;;;0.83;0.57;;;;;;;11.01;85.67;97626.78;4888872;28;102414;-77
2021/05/17 04:25:56;;;;;;;0.70;0.50;;;;;;;11.12;85.36;97632.91;4888699;28;105645;-77
2021/05/17 04:28:24;;;;;;;3.03;0.53;;;;;;;11.22;84.84;97628.47;4872813;28;102723;-77
2021/05/17 04:30:52;;;;;;;0.73;0.70;;;;;;;11.22;84.74;97623.19;4874665;28;102869;-77
2021/05/17 04:33:19;;;;;;;2.93;0.50;;;;;;;11.31;84.09;97635.56;4869946;28;103119;-77
2021/05/17 04:35:47;;;;;;;1.37;0.50;;;;;;;11.26;84.39;97640.41;4869513;28;103090;-77
2021/05/17 04:38:15;;;;;;;0.83;0.50;;;;;;;11.29;84.35;97634.84;4867607;28;104046;-77
2021/05/17 04:40:45;;;;;;;1.80;0.47;;;;;;;11.30;83.88;97636.53;4868075;28;102919;-77
2021/05/17 04:43:15;;;;;;;3.27;0.70;;;;;;;11.34;83.05;97627.34;4869090;28;102984;-77
2021/05/17 04:45:43;;;;;;;1.37;0.50;;;;;;;11.29;83.89;97632.19;4879239;28;103363;-77
2021/05/17 04:48:10;;;;;;;1.87;0.70;;;;;;;11.21;84.09;97638.19;4856606;28;105352;-77
2021/05/17 04:50:38;;;;;;;0.70;0.40;;;;;;;11.37;83.48;97635.81;4889490;28;103139;-77
2021/05/17 04:53:06;;;;;;;0.87;0.50;;;;;;;11.48;83.06;97640.13;4875222;28;102855;-77
2021/05/17 04:55:36;;;;;;;2.17;0.60;;;;;;;11.49;81.76;97636.50;4850184;28;103531;-77
2021/05/17 04:58:04;;;;;;;0.63;0.40;;;;;;;11.61;81.62;97638.00;4882299;28;103171;-76
2021/05/17 05:00:31;;;;;;;1.93;0.43;;;;;;;11.60;81.40;97644.25;4871232;28;103201;-76
2021/05/17 05:02:59;;;;;;;1.47;0.53;;;;;;;11.42;81.38;97640.69;4850283;28;102544;-76
2021/05/17 05:05:26;;;;;;;0.93;0.37;;;;;;;11.30;81.89;97647.09;4862208;28;104467;-76
2021/05/17 05:07:54;;;;;;;2.67;0.40;;;;;;;11.20;81.26;97657.66;4864974;28;102989;-77
2021/05/17 05:10:22;;;;;;;1.33;0.40;;;;;;;11.18;81.75;97653.50;4857890;28;102917;-76
2021/05/17 05:12:50;;;;;;;2.00;0.50;;;;;;;11.22;81.26;97660.19;4861442;28;103249;-77
2021/05/17 05:15:18;;;;;;;4.27;0.50;;;;;;;11.31;80.66;97662.00;4860698;28;102907;-76
2021/05/17 05:17:45;;;;;;;1.27;0.70;;;;;;;11.35;80.21;97651.00;4858914;28;103491;-76
2021/05/17 05:20:14;;;;;;;1.93;0.40;;;;;;;11.34;80.35;97664.38;4860726;28;102624;-76
2021/05/17 05:22:41;;;;;;;1.00;0.57;;;;;;;11.42;80.09;97659.22;4861023;28;103124;-76
2021/05/17 05:25:10;;;;;;;0.93;0.40;;;;;;;11.50;80.01;97661.97;4858051;28;104109;-76
2021/05/17 05:27:41;;;;;;;2.87;0.60;;;;;;;11.51;79.36;97660.97;4856503;28;103125;-76
2021/05/17 05:30:20;;;;;;;0.70;0.50;;;;;;;11.74;78.38;97667.66;4861000;28;103000;-76
2021/05/17 05:32:51;;;;;;;0.77;0.63;;;;;;;11.50;78.17;97656.69;4861306;28;103232;-76
2021/05/17 05:35:18;;;;;;;0.40;0.30;;;;;;;11.52;78.07;97657.38;4852820;28;106740;-76
2021/05/17 05:37:46;;;;;;;2.33;0.60;;;;;;;11.57;77.85;97660.41;4861763;28;106023;-76
2021/05/17 05:40:14;;;;;;;1.27;0.30;;;;;;;11.58;77.40;97662.09;4853784;28;102940;-76
2021/05/17 05:42:41;;;;;;;2.20;0.50;;;;;;;11.40;76.14;97666.41;4862351;28;103391;-78
2021/05/17 05:45:11;;;;;;;2.23;0.43;;;;;;;11.76;75.99;97665.69;4860085;28;104101;-76
2021/05/17 05:47:39;;;;;;;1.00;0.33;;;;;;;12.11;75.58;97675.63;4864182;28;102639;-76
2021/05/17 05:50:07;;;;;;;0.83;0.40;;;;;;;12.24;74.99;97662.09;4861117;28;103048;-76
2021/05/17 05:52:37;;;;;;;0.73;0.30;;;;;;;12.26;75.13;97665.41;4861622;28;103230;-76
2021/05/17 05:55:06;;;;;;;0.50;0.40;;;;;;;12.17;74.09;97667.13;4863407;28;103023;-75
2021/05/17 05:57:40;;;;;;;0.70;0.33;;;;;;;12.49;73.87;97669.34;4862956;28;102608;-77
2021/05/17 06:00:11;;;;;;;0.83;0.60;;;;;;;12.42;72.71;97673.56;4850184;28;103218;-75
2021/05/17 06:02:39;;;;;;;1.03;0.50;;;;;;;12.53;73.56;97676.00;4861517;28;102622;-75
2021/05/17 06:05:08;;;;;;;1.47;0.50;;;;;;;12.47;74.02;97684.53;4853194;28;103176;-76
2021/05/17 06:07:36;;;;;;;2.30;0.53;;;;;;;12.07;73.99;97690.16;4853821;28;102799;-74
2021/05/17 06:10:05;;;;;;;1.03;0.53;;;;;;;12.08;74.14;97689.16;4869888;28;102884;-74
2021/05/17 06:12:33;;;;;;;1.77;0.50;;;;;;;12.01;74.50;97704.78;4876267;28;103178;-75
2021/05/17 06:15:02;;;;;;;1.70;0.53;;;;;;;11.82;74.72;97707.47;4858607;28;105666;-74
2021/05/17 06:17:31;;;;;;;1.70;0.40;;;;;;;11.93;75.26;97709.94;4859456;28;102749;-74
2021/05/17 06:20:00;;;;;;;2.90;0.40;;;;;;;11.83;74.37;97713.59;4866800;28;103064;-74
2021/05/17 06:22:29;;;;;;;0.80;0.50;;;;;;;12.02;75.01;97719.69;4874011;28;102841;-74
2021/05/17 06:24:58;;;;;;;0.40;0.30;;;;;;;12.01;75.04;97722.50;4879060;28;103055;-75
2021/05/17 06:27:26;;;;;;;2.07;0.60;;;;;;;12.02;75.35;97718.84;4877752;28;103612;-74
2021/05/17 06:29:56;;;;;;;1.53;0.60;;;;;;;12.07;75.09;97721.94;4880071;28;102429;-74
2021/05/17 06:32:24;;;;;;;0.73;0.30;;;;;;;12.11;74.54;97725.94;4882258;28;103427;-74
2021/05/17 06:34:54;;;;;;;0.63;0.60;;;;;;;12.07;75.25;97725.38;4883923;28;104095;-74
2021/05/17 06:37:21;;;;;;;0.97;0.50;;;;;;;11.93;75.20;97736.41;4865715;28;103821;-74
2021/05/17 06:39:49;;;;;;;0.90;0.50;;;;;;;12.08;75.33;97731.50;4865651;28;103311;-75
2021/05/17 06:42:18;;;;;;;1.43;0.50;;;;;;;11.98;76.32;97739.50;4848711;28;103003;-75
2021/05/17 06:44:51;;;;;;;0.93;0.40;;;;;;;12.12;75.32;97740.84;4830068;28;103125;-75
2021/05/17 06:47:19;;;;;;;5.03;0.73;;;;;;;12.17;75.47;97734.16;4849186;28;103395;-74
2021/05/17 06:49:48;;;;;;;1.63;0.40;;;;;;;12.47;74.52;97737.50;4865597;28;103289;-75
2021/05/17 06:52:21;;;;;;;1.40;0.60;;;;;;;12.67;74.17;97742.59;4867537;28;102984;-75
2021/05/17 06:54:56;;;;;;;1.33;0.47;;;;;;;12.64;74.00;97739.41;4881497;28;102929;-74
2021/05/17 06:57:30;;;;;;;1.70;0.80;;;;;;;13.06;72.75;97745.88;4882661;28;103256;-75
2021/05/17 07:00:01;;;;;;;2.07;0.50;;;;;;;12.98;72.08;97745.78;4879535;28;102919;-75
2021/05/17 07:02:29;;;;;;;0.33;0.33;;;;;;;12.93;72.06;97748.06;4883489;28;102529;-76
2021/05/17 07:04:58;;;;;;;0.90;0.47;;;;;;;12.71;72.33;97751.09;4882701;28;102395;-76
2021/05/17 07:07:41;;;;;;;0.60;0.40;;;;;;;12.52;72.78;97756.47;4866828;28;103305;-76
2021/05/17 07:12:57;;;;;;;0.77;0.60;;;;;;;13.01;71.51;97756.09;4826283;29;103247;-76
2021/05/17 07:15:24;;;;;;;0.80;0.30;;;;;;;12.74;73.07;97758.75;4825634;29;102834;-76
2021/05/17 07:17:52;;;;;;;0.97;0.40;;;;;;;12.80;74.78;97758.13;4831555;29;104420;-76
2021/05/17 07:20:25;;;;;;;0.73;0.43;;;;;;;12.50;74.54;97761.06;4846276;29;102417;-76
2021/05/17 07:25:40;;;;;;;1.03;0.50;;;;;;;12.76;73.91;97762.09;4838537;29;103438;-76
2021/05/17 07:28:08;;;;;;;1.70;0.40;;;;;;;12.96;73.77;97765.47;4845390;28;102490;-76
2021/05/17 07:30:36;;;;;;;1.63;0.50;;;;;;;13.42;71.90;97764.53;4845037;28;102626;-76
2021/05/17 07:33:04;;;;;;;2.03;0.60;;;;;;;14.00;70.21;97760.38;4836461;29;102583;-76
2021/05/17 07:35:32;;;;;;;0.80;0.50;;;;;;;14.41;68.08;97759.69;4826775;29;102789;-76
2021/05/17 07:38:01;;;;;;;1.80;0.70;;;;;;;14.88;66.99;97756.59;4841234;29;103449;-76
2021/05/17 07:40:28;;;;;;;1.20;0.60;;;;;;;14.73;66.86;97766.19;4844825;29;103059;-75
2021/05/17 07:42:56;;;;;;;1.67;0.80;;;;;;;15.17;66.17;97770.34;4845552;28;103004;-76
2021/05/17 07:45:44;;;;;;;3.27;0.53;;;;;;;14.82;67.54;97759.91;4847113;28;102989;-76
2021/05/17 07:48:12;;;;;;;2.40;0.60;;;;;;;15.00;65.70;97765.94;4844512;29;103219;-75
2021/05/17 07:50:40;;;;;;;3.27;0.50;;;;;;;14.97;65.60;97760.94;4846726;29;102550;-77
2021/05/17 07:53:09;;;;;;;1.77;0.70;;;;;;;14.92;66.33;97764.09;4845415;29;103024;-76
2021/05/17 07:55:37;;;;;;;2.30;0.60;;;;;;;14.86;65.12;97766.56;4839856;29;102524;-76
2021/05/17 07:58:05;;;;;;;1.03;0.50;;;;;;;14.24;65.60;97773.00;4828251;29;104127;-76
2021/05/17 08:00:33;;;;;;;1.40;0.80;;;;;;;14.46;66.12;97778.66;4832855;29;102641;-76
2021/05/17 08:03:01;;;;;;;1.47;0.70;;;;;;;14.62;67.02;97779.75;4839043;29;103466;-75
2021/05/17 08:05:35;;;;;;;3.17;0.70;;;;;;;14.61;65.60;97786.03;4842629;28;103736;-75
2021/05/17 08:08:04;;;;;;;1.07;0.50;;;;;;;14.18;64.75;97784.22;4840863;29;104425;-75
2021/05/17 08:10:34;;;;;;;0.60;0.40;;;;;;;14.13;65.89;97792.69;4868696;28;102633;-75
2021/05/17 08:13:02;;;;;;;1.80;0.70;;;;;;;14.18;65.89;97785.06;4861345;28;102629;-76
2021/05/17 08:15:42;;;;;;;1.90;0.60;;;;;;;13.83;65.78;97787.78;4871293;28;103407;-76
2021/05/17 08:18:10;;;;;;;1.40;0.50;;;;;;;13.94;66.07;97784.91;4869336;28;103015;-76
2021/05/17 08:20:37;;;;;;;0.73;0.50;;;;;;;14.05;65.25;97789.97;4877188;28;103162;-76
2021/05/17 08:23:06;;;;;;;1.33;0.60;;;;;;;13.98;65.43;97780.13;4863990;28;102646;-75
2021/05/17 08:25:35;;;;;;;2.27;0.60;;;;;;;14.97;63.85;97787.53;4884613;28;103411;-76
2021/05/17 08:28:03;;;;;;;2.57;0.70;;;;;;;15.51;61.50;97792.41;4868012;28;102741;-76
2021/05/17 08:30:38;;;;;;;0.70;0.40;;;;;;;15.75;62.34;97791.59;4879480;28;102603;-76
2021/05/17 08:33:06;;;;;;;1.03;0.53;;;;;;;16.00;59.56;97784.50;4865503;28;103232;-76
2021/05/17 08:35:34;;;;;;;1.70;0.50;;;;;;;16.56;57.85;97780.97;4865886;28;104881;-75
2021/05/17 08:38:01;;;;;;;1.60;0.73;;;;;;;16.97;56.15;97776.31;4865243;28;104569;-76
2021/05/17 08:40:29;;;;;;;0.80;0.60;;;;;;;17.33;57.39;97777.47;4883045;28;103522;-76
2021/05/17 08:42:58;;;;;;;1.33;0.50;;;;;;;17.53;55.04;97776.03;4883585;28;103041;-76
2021/05/17 08:45:26;;;;;;;1.27;0.50;;;;;;;17.39;55.76;97772.28;4865394;28;104369;-76
2021/05/17 08:47:54;;;;;;;2.03;0.80;;;;;;;17.25;55.15;97764.19;4866462;28;102987;-76
2021/05/17 08:50:23;;;;;;;1.80;0.50;;;;;;;16.38;56.20;97775.78;4885187;28;103730;-76
2021/05/17 08:52:51;;;;;;;1.27;0.50;;;;;;;16.29;58.38;97774.13;4882173;28;102499;-76
2021/05/17 08:55:20;;;;;;;4.13;0.90;;;;;;;16.17;58.86;97775.47;4868537;28;104881;-76
2021/05/17 08:57:49;;;;;;;2.03;0.60;;;;;;;15.87;58.48;97778.81;4868602;28;103566;-76
2021/05/17 09:00:22;;;;;;;3.37;0.70;;;;;;;15.45;58.63;97786.88;4886161;28;102593;-76
2021/05/17 09:02:51;;;;;;;2.37;0.80;;;;;;;15.18;59.47;97785.31;4868758;28;102610;-76
2021/05/17 09:05:23;;;;;;;0.87;0.53;;;;;;;16.32;58.03;97781.78;4868521;28;102519;-76
2021/05/17 09:07:53;;;;;;;1.57;0.40;;;;;;;16.74;56.34;97787.72;4885255;28;102701;-76
2021/05/17 09:10:25;;;;;;;0.97;0.50;;;;;;;16.19;56.69;97792.13;4885155;28;102871;-77
2021/05/17 09:13:02;;;;;;;1.57;0.50;;;;;;;16.80;55.68;97784.38;4906439;28;103282;-76
2021/05/17 09:15:33;;;;;;;2.73;0.60;;;;;;;16.09;58.03;97794.13;4883684;28;102608;-77
2021/05/17 09:18:03;;;;;;;3.67;0.60;;;;;;;15.85;58.82;97797.63;4904223;28;102695;-77
2021/05/17 09:20:35;;;;;;;1.63;0.60;;;;;;;15.76;59.76;97801.28;4905845;28;102831;-76
2021/05/17 09:23:15;;;;;;;1.27;0.60;;;;;;;15.85;62.09;97802.13;4905491;28;103092;-77
2021/05/17 09:26:03;;;;;;;1.05;0.55;;;;;;;15.61;60.52;97798.41;4877492;28;105166;-77
2021/05/17 09:28:33;;;;;;;0.97;0.47;;;;;;;16.08;60.90;97790.63;4849240;28;103486;-76
2021/05/17 09:31:05;;;;;;;1.40;0.67;;;;;;;15.92;59.61;97792.44;4868569;28;102433;-76
2021/05/17 09:33:42;;;;;;;2.17;0.50;;;;;;;15.92;61.53;97801.28;4906728;28;102755;-76
2021/05/17 09:36:24;;;;;;;0.63;0.40;;;;;;;15.55;65.78;97812.38;4905747;28;102673;-76
2021/05/17 09:38:56;;;;;;;1.07;0.37;;;;;;;15.45;69.07;97811.66;4894611;28;102463;-76
2021/05/17 09:41:36;;;;;;;2.17;0.75;;;;;;;16.09;67.19;97802.94;4883078;28;103085;-76
2021/05/17 09:44:05;;;;;;;2.40;0.70;;;;;;;16.24;65.62;97801.28;4884508;28;102903;-76
2021/05/17 09:47:02;;;;;;;1.30;0.70;;;;;;;16.25;62.38;97802.13;4883747;28;103079;-76
2021/05/17 09:49:34;;;;;;;0.47;0.40;;;;;;;16.58;63.30;97798.44;4898574;28;102573;-76
2021/05/17 09:52:15;;;;;;;1.05;0.43;;;;;;;16.77;64.29;97792.72;4868477;28;102635;-76
2021/05/17 09:54:55;;;;;;;1.58;0.52;;;;;;;16.40;62.46;97802.25;4885651;28;102897;-76
2021/05/17 09:57:26;;;;;;;1.00;0.40;;;;;;;16.45;61.31;97798.09;4871919;28;102992;-77
2021/05/17 09:59:56;;;;;;;1.03;0.40;;;;;;;16.21;60.65;97798.13;4866679;28;104086;-75
2021/05/17 10:02:29;;;;;;;2.00;0.50;;;;;;;16.54;61.86;97797.09;4881541;28;102588;-77
2021/05/17 10:05:23;;;;;;;3.80;0.55;;;;;;;16.14;59.60;97797.13;4870035;28;103032;-76
2021/05/17 10:07:53;;;;;;;0.90;0.40;;;;;;;16.36;59.85;97799.13;4871955;28;103421;-76
2021/05/17 10:10:41;;;;;;;0.95;0.50;;;;;;;15.65;59.16;97794.44;4879262;28;103027;-76
2021/05/17 10:13:09;;;;;;;0.40;0.40;;;;;;;15.54;61.20;97802.75;4887305;28;102321;-77
2021/05/17 10:15:38;;;;;;;1.17;0.40;;;;;;;15.80;59.36;97797.28;4882737;28;103109;-75
2021/05/17 10:18:13;;;;;;;1.17;0.50;;;;;;;16.18;58.67;97793.97;4848970;28;102372;-76
2021/05/17 10:20:43;;;;;;;0.60;0.50;;;;;;;16.48;58.25;97789.75;4863537;28;102711;-75
2021/05/17 10:23:13;;;;;;;1.30;0.40;;;;;;;16.67;57.56;97781.41;4871687;28;102402;-76
2021/05/17 10:25:42;;;;;;;0.60;0.30;;;;;;;16.86;58.96;97784.69;4868447;28;102825;-76
2021/05/17 10:28:14;;;;;;;0.70;0.40;;;;;;;17.65;56.77;97781.84;4867571;28;106687;-78
2021/05/17 10:30:43;;;;;;;1.02;0.47;;;;;;;17.21;56.49;97782.38;4871965;28;106691;-76
2021/05/17 10:33:19;;;;;;;0.70;0.43;;;;;;;17.49;56.82;97782.72;4889906;28;102085;-77
2021/05/17 10:35:49;;;;;;;0.68;0.30;;;;;;;17.30;57.88;97791.19;4871576;28;102702;-77
2021/05/17 10:38:25;;;;;;;2.15;0.60;;;;;;;17.14;57.42;97788.59;4871132;28;104654;-75
2021/05/17 10:41:00;;;;;;;4.05;0.40;;;;;;;16.70;56.66;97791.72;4872166;28;103101;-77
2021/05/17 10:44:02;;;;;;;2.03;0.77;;;;;;;17.17;56.57;97793.59;4886754;28;102537;-77
2021/05/17 10:46:38;;;;;;;1.48;0.55;;;;;;;17.29;56.30;97794.88;4880434;28;102559;-76
2021/05/17 10:49:31;;;;;;;2.03;0.70;;;;;;;17.00;57.25;97789.31;4886034;28;102620;-75
2021/05/17 10:52:23;;;;;;;1.42;1.25;;;;;;;17.61;56.15;97792.03;4866958;28;102557;-75
2021/05/17 10:55:06;;;;;;;0.73;0.32;;;;;;;17.71;54.70;97781.94;4857318;28;102742;-75
2021/05/17 10:57:39;;;;;;;0.85;0.45;;;;;;;17.82;55.65;97788.72;4865408;28;102475;-77
2021/05/17 11:00:23;;;;;;;0.57;0.30;;;;;;;17.64;54.19;97775.66;4881823;28;103771;-75
2021/05/17 11:03:20;;;;;;;1.08;0.50;;;;;;;18.25;55.23;97773.84;4875955;28;102906;-75
2021/05/17 11:05:54;;;;;;;0.93;0.43;;;;;;;18.36;54.45;97770.72;4847049;28;103216;-76
2021/05/17 11:08:24;;;;;;;1.20;0.90;;;;;;;18.42;55.22;97770.00;4865571;28;102946;-75
2021/05/17 11:10:54;;;;;;;1.08;0.52;;;;;;;18.67;54.44;97762.56;4879891;28;102773;-75
2021/05/17 11:13:24;;;;;;;0.93;0.40;;;;;;;19.05;53.55;97770.34;4876706;28;102494;-75
2021/05/17 11:16:02;;;;;;;0.68;0.50;;;;;;;18.01;52.43;97780.22;4866393;28;102773;-75
2021/05/17 11:18:42;;;;;;;1.98;0.47;;;;;;;17.85;53.17;97777.69;4863111;28;104003;-75
2021/05/17 11:21:14;;;;;;;3.05;0.55;;;;;;;17.44;55.25;97793.09;4885185;28;103335;-76
2021/05/17 11:23:56;;;;;;;1.25;0.73;;;;;;;17.20;58.06;97794.06;4878551;28;103289;-76
2021/05/17 11:26:25;;;;;;;0.60;0.35;;;;;;;16.54;60.96;97802.44;4892134;28;103011;-76
2021/05/17 11:29:11;;;;;;;1.10;0.55;;;;;;;15.90;64.05;97816.59;4884850;28;102691;-75
2021/05/17 11:31:46;;;;;;;3.67;0.90;;;;;;;15.26;69.63;97825.25;4868809;28;105097;-76
2021/05/17 11:34:26;;;;;;;5.43;0.73;;;;;;;14.63;76.51;97831.91;4863576;28;103035;-75
2021/05/17 11:37:13;;;;;;;1.95;0.82;;;;;;;14.10;77.77;97835.47;4885886;28;103105;-76
2021/05/17 11:39:42;;;;;;;1.90;0.85;;;;;;;14.25;81.25;97839.25;4876148;28;102609;-76
2021/05/17 11:42:18;;;;;;;5.40;1.05;;;;;;;13.69;83.10;97852.88;4869183;28;103425;-78
2021/05/17 11:44:54;;;;;;;1.83;0.82;;;;;;;13.58;86.47;97849.59;4883180;28;102559;-76
2021/05/17 11:47:28;;;;;;;4.43;1.10;;;;;;;14.94;82.72;97843.72;4883935;28;103080;-77
2021/05/17 11:49:58;;;;;;;1.30;0.85;;;;;;;16.15;78.59;97849.41;4861216;28;102578;-75
2021/05/17 11:52:28;;;;;;;4.07;1.10;;;;;;;16.17;77.99;97832.25;4832373;28;106344;-76
2021/05/17 11:54:58;;;;;;;1.75;0.90;;;;;;;16.75;75.63;97821.41;4874956;28;103097;-76
2021/05/17 11:57:29;;;;;;;2.22;0.63;;;;;;;17.18;77.13;97821.91;4882804;28;103269;-76